createdAt,value
2018-03-27T00:00:35.314Z,158.80
2018-03-27T00:01:35.348Z,163.20
2018-03-27T00:02:35.375Z,159.90
2018-03-27T00:03:35.403Z,162.90
2018-03-27T00:04:35.433Z,163.30
2018-03-27T00:05:35.463Z,164.60
2018-03-27T00:06:35.491Z,171.20
2018-03-27T00:07:35.521Z,182.60
2018-03-27T00:08:35.552Z,164.20
2018-03-27T00:09:35.579Z,179.20
2018-03-27T00:10:35.609Z,203.50
2018-03-27T00:11:35.639Z,178.70
2018-03-27T00:12:35.668Z,170.40
2018-03-27T00:13:35.697Z,179.40
2018-03-27T00:14:35.727Z,174.60
2018-03-27T00:15:35.758Z,171.70
2018-03-27T00:16:35.787Z,182.80
2018-03-27T00:17:35.816Z,175.20
2018-03-27T00:18:35.844Z,184.50
2018-03-27T00:19:35.874Z,205.90
2018-03-27T00:20:35.902Z,182.20
2018-03-27T00:21:35.932Z,179.60
2018-03-27T00:22:35.962Z,191.70
2018-03-27T00:23:35.992Z,180.90
2018-03-27T00:24:36.021Z,168.30
2018-03-27T00:25:36.050Z,168.10
2018-03-27T00:26:36.079Z,161.10
2018-03-27T00:27:36.110Z,154.30
2018-03-27T00:28:36.138Z,170.20
2018-03-27T00:29:36.170Z,162.80
2018-03-27T00:30:36.198Z,176.80
2018-03-27T00:31:36.227Z,184.80
2018-03-27T00:32:36.256Z,168.50
2018-03-27T00:33:36.287Z,168.30
2018-03-27T00:34:36.319Z,166.20
2018-03-27T00:35:36.344Z,173.20
2018-03-27T00:36:36.374Z,174.90
2018-03-27T00:37:36.403Z,166.80
2018-03-27T00:38:36.432Z,173.00
2018-03-27T00:39:36.462Z,183.10
2018-03-27T00:40:36.492Z,176.60
2018-03-27T00:41:36.522Z,185.60
2018-03-27T00:42:36.549Z,180.60
2018-03-27T00:43:36.578Z,169.10
2018-03-27T00:44:36.608Z,180.90
2018-03-27T00:45:36.637Z,190.80
2018-03-27T00:46:36.667Z,183.70
2018-03-27T00:47:36.695Z,193.20
2018-03-27T00:48:36.725Z,190.00
2018-03-27T00:49:36.754Z,178.70
2018-03-27T00:50:36.786Z,183.00
2018-03-27T00:51:36.812Z,171.50
2018-03-27T00:52:36.842Z,162.60
2018-03-27T00:53:36.874Z,183.70
2018-03-27T00:54:36.900Z,168.70
2018-03-27T00:55:36.928Z,156.30
2018-03-27T00:56:36.958Z,160.00
2018-03-27T00:57:36.988Z,154.40
2018-03-27T00:58:37.016Z,161.40
2018-03-27T00:59:37.045Z,161.80
2018-03-27T01:00:37.074Z,162.50
2018-03-27T01:01:37.104Z,147.60
2018-03-27T01:02:37.132Z,152.80
2018-03-27T01:03:37.162Z,151.80
2018-03-27T01:04:37.191Z,156.90
2018-03-27T01:05:37.221Z,176.20
2018-03-27T01:06:37.249Z,157.30
2018-03-27T01:07:37.278Z,162.80
2018-03-27T01:08:37.307Z,160.70
2018-03-27T01:09:37.337Z,167.10
2018-03-27T01:10:37.365Z,165.70
2018-03-27T01:11:37.396Z,163.80
2018-03-27T01:12:37.424Z,173.90
2018-03-27T01:13:37.453Z,171.90
2018-03-27T01:14:37.482Z,164.40
2018-03-27T01:15:37.510Z,162.10
2018-03-27T01:16:37.540Z,168.10
2018-03-27T01:17:37.570Z,176.20
2018-03-27T01:18:37.598Z,173.10
2018-03-27T01:19:37.627Z,170.00
2018-03-27T01:20:37.658Z,168.80
2018-03-27T01:21:37.685Z,183.10
2018-03-27T01:22:37.713Z,174.60
2018-03-27T01:23:37.743Z,172.10
2018-03-27T01:24:37.771Z,173.30
2018-03-27T01:25:37.814Z,172.40
2018-03-27T01:26:37.830Z,169.90
2018-03-27T01:27:37.860Z,160.30
2018-03-27T01:28:37.888Z,163.50
2018-03-27T01:29:37.917Z,151.40
2018-03-27T01:30:37.946Z,145.60
2018-03-27T01:31:37.982Z,161.80
2018-03-27T01:32:38.004Z,152.30
2018-03-27T01:33:38.032Z,145.80
2018-03-27T01:34:38.061Z,141.20
2018-03-27T01:35:38.091Z,148.30
2018-03-27T01:36:38.120Z,147.30
2018-03-27T01:37:38.150Z,137.70
2018-03-27T01:38:38.178Z,157.40
2018-03-27T01:39:38.207Z,147.20
2018-03-27T01:40:38.236Z,168.60
2018-03-27T01:41:38.264Z,172.20
2018-03-27T01:42:38.292Z,182.60
2018-03-27T01:43:38.323Z,185.90
2018-03-27T01:44:38.352Z,182.10
2018-03-27T01:45:38.385Z,188.60
2018-03-27T01:46:38.409Z,173.60
2018-03-27T01:47:38.438Z,168.00
2018-03-27T01:48:38.467Z,158.60
2018-03-27T01:49:38.496Z,159.00
2018-03-27T01:50:38.524Z,162.40
2018-03-27T01:51:38.552Z,168.40
2018-03-27T01:52:38.582Z,171.20
2018-03-27T01:53:38.612Z,157.00
2018-03-27T01:54:38.640Z,161.70
2018-03-27T01:55:38.670Z,157.20
2018-03-27T01:56:38.701Z,152.70
2018-03-27T01:57:38.727Z,164.10
2018-03-27T01:58:38.755Z,173.40
2018-03-27T01:59:38.785Z,180.30
2018-03-27T02:00:38.814Z,188.90
2018-03-27T02:01:38.847Z,181.70
2018-03-27T02:02:38.871Z,175.00
2018-03-27T02:03:38.900Z,183.70
2018-03-27T02:04:38.929Z,176.70
2018-03-27T02:05:38.959Z,187.50
2018-03-27T02:06:38.986Z,182.70
2018-03-27T02:07:39.015Z,186.50
2018-03-27T02:08:39.044Z,193.70
2018-03-27T02:09:39.073Z,183.50
2018-03-27T02:10:39.101Z,179.50
2018-03-27T02:11:39.129Z,179.40
2018-03-27T02:12:39.160Z,155.70
2018-03-27T02:13:39.189Z,162.90
2018-03-27T02:14:39.217Z,168.30
2018-03-27T02:15:39.246Z,138.80
2018-03-27T02:16:39.273Z,142.50
2018-03-27T02:17:39.303Z,159.90
2018-03-27T02:18:39.334Z,162.20
2018-03-27T02:19:39.360Z,158.90
2018-03-27T02:20:39.395Z,161.10
2018-03-27T02:21:39.419Z,174.30
2018-03-27T02:22:39.447Z,173.30
2018-03-27T02:23:39.477Z,180.20
2018-03-27T02:24:39.505Z,174.90
2018-03-27T02:25:39.535Z,172.60
2018-03-27T02:26:39.563Z,160.50
2018-03-27T02:27:39.591Z,159.30
2018-03-27T02:28:39.620Z,168.60
2018-03-27T02:29:39.650Z,171.10
2018-03-27T02:30:39.677Z,174.90
2018-03-27T02:31:39.707Z,170.30
2018-03-27T02:32:39.741Z,178.50
2018-03-27T02:33:39.767Z,181.60
2018-03-27T02:34:39.792Z,158.60
2018-03-27T02:35:39.825Z,168.30
2018-03-27T02:36:39.850Z,174.50
2018-03-27T02:37:39.888Z,171.00
2018-03-27T02:38:39.908Z,170.40
2018-03-27T02:39:39.938Z,158.00
2018-03-27T02:40:39.974Z,157.50
2018-03-27T02:41:39.996Z,145.70
2018-03-27T02:42:40.024Z,153.40
2018-03-27T02:43:40.053Z,153.20
2018-03-27T02:44:40.082Z,155.40
2018-03-27T02:45:40.110Z,153.00
2018-03-27T02:46:40.139Z,160.70
2018-03-27T02:47:40.167Z,160.70
2018-03-27T02:48:40.197Z,161.80
2018-03-27T02:49:40.225Z,165.40
2018-03-27T02:50:40.254Z,164.10
2018-03-27T02:51:40.281Z,158.20
2018-03-27T02:52:40.312Z,181.70
2018-03-27T02:53:40.345Z,179.40
2018-03-27T02:54:40.408Z,171.10
2018-03-27T02:55:40.396Z,160.40
2018-03-27T02:56:40.426Z,176.50
2018-03-27T02:57:40.455Z,160.80
2018-03-27T02:58:40.487Z,159.10
2018-03-27T02:59:40.513Z,168.80
2018-03-27T03:00:40.542Z,164.50
2018-03-27T03:01:40.570Z,155.90
2018-03-27T03:02:40.597Z,149.40
2018-03-27T03:03:40.627Z,160.10
2018-03-27T03:04:40.656Z,164.30
2018-03-27T03:05:40.686Z,165.00
2018-03-27T03:06:40.712Z,151.20
2018-03-27T03:07:40.742Z,152.30
2018-03-27T03:08:40.776Z,156.90
2018-03-27T03:09:40.799Z,168.70
2018-03-27T03:10:40.827Z,148.40
2018-03-27T03:11:40.855Z,163.70
2018-03-27T03:12:40.885Z,165.40
2018-03-27T03:13:40.912Z,158.80
2018-03-27T03:14:40.942Z,156.30
2018-03-27T03:15:40.971Z,155.70
2018-03-27T03:16:41.000Z,165.00
2018-03-27T03:17:41.028Z,164.80
2018-03-27T03:18:41.062Z,155.40
2018-03-27T03:19:41.086Z,158.50
2018-03-27T03:20:41.114Z,141.70
2018-03-27T03:21:41.145Z,150.60
2018-03-27T03:22:41.173Z,140.90
2018-03-27T03:23:41.200Z,152.20
2018-03-27T03:24:41.229Z,158.70
2018-03-27T03:25:41.258Z,151.70
2018-03-27T03:26:41.290Z,149.30
2018-03-27T03:27:41.319Z,152.70
2018-03-27T03:28:41.345Z,161.70
2018-03-27T03:29:41.373Z,149.30
2018-03-27T03:30:41.402Z,161.30
2018-03-27T03:31:41.430Z,158.30
2018-03-27T03:32:41.457Z,148.70
2018-03-27T03:33:41.517Z,139.50
2018-03-27T03:34:41.516Z,147.50
2018-03-27T03:35:41.544Z,147.60
2018-03-27T03:36:41.574Z,152.60
2018-03-27T03:37:41.602Z,167.20
2018-03-27T03:38:41.630Z,179.10
2018-03-27T03:39:41.658Z,166.20
2018-03-27T03:40:41.687Z,170.80
2018-03-27T03:41:41.716Z,166.60
2018-03-27T03:42:41.742Z,171.20
2018-03-27T03:43:41.772Z,173.40
2018-03-27T03:44:41.802Z,163.20
2018-03-27T03:45:41.831Z,160.20
2018-03-27T03:46:41.859Z,168.10
2018-03-27T03:47:41.893Z,171.70
2018-03-27T03:48:41.915Z,175.50
2018-03-27T03:49:41.944Z,175.90
2018-03-27T03:50:41.972Z,171.70
2018-03-27T03:51:42.006Z,172.80
2018-03-27T03:52:42.029Z,164.90
2018-03-27T03:53:42.057Z,177.20
2018-03-27T03:54:42.088Z,158.50
2018-03-27T03:55:42.115Z,168.30
2018-03-27T03:56:42.144Z,169.70
2018-03-27T03:57:42.173Z,166.20
2018-03-27T03:58:42.200Z,170.30
2018-03-27T03:59:42.229Z,162.10
2018-03-27T04:00:42.257Z,167.90
2018-03-27T04:01:42.285Z,166.30
2018-03-27T04:02:42.313Z,173.00
2018-03-27T04:03:42.342Z,164.00
2018-03-27T04:04:42.371Z,175.90
2018-03-27T04:05:42.399Z,161.30
2018-03-27T04:06:42.426Z,159.90
2018-03-27T04:07:42.455Z,152.20
2018-03-27T04:08:42.483Z,160.40
2018-03-27T04:09:42.513Z,162.20
2018-03-27T04:10:42.540Z,167.80
2018-03-27T04:11:42.568Z,157.00
2018-03-27T04:12:42.599Z,170.00
2018-03-27T04:13:42.649Z,178.40
2018-03-27T04:14:42.655Z,166.60
2018-03-27T04:15:42.681Z,163.40
2018-03-27T04:16:42.710Z,157.40
2018-03-27T04:17:42.739Z,171.80
2018-03-27T04:18:42.765Z,170.00
2018-03-27T04:19:42.793Z,183.70
2018-03-27T04:20:42.822Z,171.40
2018-03-27T04:21:42.850Z,157.00
2018-03-27T04:22:42.877Z,167.90
2018-03-27T04:23:42.908Z,170.00
2018-03-27T04:24:42.936Z,176.90
2018-03-27T04:25:42.962Z,176.70
2018-03-27T04:26:42.990Z,173.20
2018-03-27T04:27:43.019Z,168.10
2018-03-27T04:28:43.047Z,174.20
2018-03-27T04:29:43.075Z,173.80
2018-03-27T04:30:43.102Z,186.40
2018-03-27T04:31:43.131Z,172.10
2018-03-27T04:32:43.157Z,182.00
2018-03-27T04:33:43.188Z,173.00
2018-03-27T04:34:43.213Z,173.50
2018-03-27T04:35:43.241Z,179.60
2018-03-27T04:36:43.271Z,168.00
2018-03-27T04:37:43.299Z,165.70
2018-03-27T04:38:43.326Z,154.70
2018-03-27T04:39:43.354Z,153.40
2018-03-27T04:40:43.401Z,147.80
2018-03-27T04:41:43.411Z,161.30
2018-03-27T04:42:43.442Z,158.70
2018-03-27T04:43:43.467Z,155.00
2018-03-27T04:44:43.495Z,163.50
2018-03-27T04:45:43.523Z,152.90
2018-03-27T04:46:43.550Z,147.90
2018-03-27T04:47:43.578Z,149.30
2018-03-27T04:48:43.606Z,142.80
2018-03-27T04:49:43.635Z,150.40
2018-03-27T04:50:43.663Z,164.90
2018-03-27T04:51:43.690Z,157.80
2018-03-27T04:52:43.719Z,178.20
2018-03-27T04:53:43.747Z,171.80
2018-03-27T04:54:43.773Z,160.60
2018-03-27T04:55:43.801Z,154.80
2018-03-27T04:56:43.829Z,159.10
2018-03-27T04:57:43.858Z,172.70
2018-03-27T04:58:43.885Z,164.70
2018-03-27T04:59:43.912Z,173.80
2018-03-27T05:00:43.941Z,162.90
2018-03-27T05:01:43.970Z,169.30
2018-03-27T05:02:43.999Z,193.40
2018-03-27T05:03:44.025Z,182.80
2018-03-27T05:04:44.058Z,190.10
2018-03-27T05:05:44.081Z,195.40
2018-03-27T05:06:44.109Z,199.80
2018-03-27T05:07:44.136Z,217.10
2018-03-27T05:08:44.164Z,214.20
2018-03-27T05:09:44.191Z,197.40
2018-03-27T05:10:44.219Z,200.10
2018-03-27T05:11:44.247Z,193.90
2018-03-27T05:12:44.275Z,201.50
2018-03-27T05:13:44.314Z,212.20
2018-03-27T05:14:44.331Z,238.00
2018-03-27T05:15:44.358Z,212.70
2018-03-27T05:16:44.386Z,211.10
2018-03-27T05:17:44.414Z,222.60
2018-03-27T05:18:44.441Z,214.50
2018-03-27T05:19:44.470Z,230.40
2018-03-27T05:20:44.497Z,207.30
2018-03-27T05:21:44.529Z,208.80
2018-03-27T05:22:44.551Z,234.30
2018-03-27T05:23:44.580Z,200.60
2018-03-27T05:24:44.608Z,202.30
2018-03-27T05:25:44.635Z,215.60
2018-03-27T05:26:44.664Z,248.10
2018-03-27T05:27:44.691Z,265.20
2018-03-27T05:28:44.720Z,244.50
2018-03-27T05:29:44.747Z,242.90
2018-03-27T05:30:44.778Z,250.00
2018-03-27T05:31:44.801Z,287.50
2018-03-27T05:32:44.829Z,307.30
2018-03-27T05:33:44.858Z,260.90
2018-03-27T05:34:44.884Z,297.60
2018-03-27T05:35:44.912Z,264.80
2018-03-27T05:36:44.939Z,287.90
2018-03-27T05:37:44.967Z,282.60
2018-03-27T05:38:45.003Z,240.90
2018-03-27T05:39:45.022Z,241.10
2018-03-27T05:40:45.050Z,247.70
2018-03-27T05:41:45.078Z,219.10
2018-03-27T05:42:45.105Z,213.30
2018-03-27T05:43:45.132Z,215.70
2018-03-27T05:44:45.160Z,216.50
2018-03-27T05:45:45.188Z,176.90
2018-03-27T05:46:45.258Z,153.00
2018-03-27T05:47:45.242Z,148.00
2018-03-27T05:48:45.273Z,183.30
2018-03-27T05:49:45.299Z,167.30
2018-03-27T05:50:45.327Z,159.00
2018-03-27T05:51:45.373Z,142.40
2018-03-27T05:52:45.379Z,160.50
2018-03-27T05:53:45.409Z,134.00
2018-03-27T05:54:45.436Z,140.10
2018-03-27T05:55:45.463Z,133.00
2018-03-27T05:56:45.493Z,144.40
2018-03-27T05:57:45.519Z,140.00
2018-03-27T05:58:45.546Z,141.20
2018-03-27T05:59:45.575Z,143.90
2018-03-27T06:00:45.602Z,103.50
2018-03-27T06:01:45.630Z,108.60
2018-03-27T06:02:45.657Z,116.20
2018-03-27T06:03:45.684Z,121.20
2018-03-27T06:04:45.712Z,115.10
2018-03-27T06:05:45.741Z,123.30
2018-03-27T06:06:45.767Z,109.50
2018-03-27T06:07:45.796Z,114.20
2018-03-27T06:08:45.823Z,117.70
2018-03-27T06:09:45.852Z,116.90
2018-03-27T06:10:45.880Z,120.70
2018-03-27T06:11:45.907Z,122.60
2018-03-27T06:12:45.934Z,127.40
2018-03-27T06:13:45.967Z,133.10
2018-03-27T06:14:45.989Z,124.30
2018-03-27T06:15:46.017Z,114.80
2018-03-27T06:16:46.047Z,118.50
2018-03-27T06:17:46.075Z,121.40
2018-03-27T06:18:46.101Z,131.60
2018-03-27T06:19:46.131Z,130.20
2018-03-27T06:20:46.159Z,108.90
2018-03-27T06:21:46.187Z,107.70
2018-03-27T06:22:46.215Z,113.10
2018-03-27T06:23:46.242Z,106.50
2018-03-27T06:24:46.271Z,108.60
2018-03-27T06:25:46.299Z,106.90
2018-03-27T06:26:46.328Z,107.60
2018-03-27T06:27:46.355Z,103.00
2018-03-27T06:28:46.383Z,110.80
2018-03-27T06:29:46.417Z,105.00
2018-03-27T06:30:46.440Z,105.90
2018-03-27T06:31:46.470Z,104.40
2018-03-27T06:32:46.496Z,102.40
2018-03-27T06:33:46.528Z,105.30
2018-03-27T06:34:46.553Z,101.00
2018-03-27T06:35:46.583Z,101.80
2018-03-27T06:36:46.610Z,106.20
2018-03-27T06:37:46.638Z,99.80
2018-03-27T06:38:46.666Z,100.00
2018-03-27T06:39:46.695Z,113.00
2018-03-27T06:40:46.723Z,102.90
2018-03-27T06:41:46.756Z,97.70
2018-03-27T06:42:46.780Z,101.10
2018-03-27T06:43:46.808Z,101.70
2018-03-27T06:44:46.838Z,105.50
2018-03-27T06:45:46.866Z,99.60
2018-03-27T06:46:46.905Z,99.90
2018-03-27T06:47:46.929Z,104.90
2018-03-27T06:48:46.952Z,103.20
2018-03-27T06:49:46.981Z,102.00
2018-03-27T06:50:47.009Z,94.80
2018-03-27T06:51:47.038Z,94.40
2018-03-27T06:52:47.073Z,98.30
2018-03-27T06:53:47.095Z,99.20
2018-03-27T06:54:47.125Z,93.40
2018-03-27T06:55:47.153Z,91.80
2018-03-27T06:56:47.186Z,99.20
2018-03-27T06:57:47.212Z,98.40
2018-03-27T06:58:47.240Z,101.80
2018-03-27T06:59:47.267Z,103.30
2018-03-27T07:00:47.300Z,102.90
2018-03-27T07:01:47.326Z,92.50
2018-03-27T07:02:47.354Z,106.40
2018-03-27T07:03:47.410Z,101.80
2018-03-27T07:04:47.437Z,99.70
2018-03-27T07:05:47.485Z,94.20
2018-03-27T07:06:47.473Z,98.10
2018-03-27T07:07:47.500Z,99.50
2018-03-27T07:08:47.540Z,98.80
2018-03-27T07:09:47.559Z,100.70
2018-03-27T07:10:47.691Z,96.60
2018-03-27T07:11:47.622Z,95.30
2018-03-27T07:12:47.690Z,95.70
2018-03-27T07:13:47.675Z,97.40
2018-03-27T07:14:47.717Z,96.40
2018-03-27T07:15:47.734Z,99.80
2018-03-27T07:16:47.802Z,94.80
2018-03-27T07:17:47.793Z,98.60
2018-03-27T07:18:47.821Z,90.80
2018-03-27T07:19:47.852Z,95.20
2018-03-27T07:20:47.910Z,91.00
2018-03-27T07:21:47.912Z,95.10
2018-03-27T07:22:47.941Z,89.10
2018-03-27T07:23:47.971Z,88.30
2018-03-27T07:24:48.001Z,88.40
2018-03-27T07:25:48.030Z,94.10
2018-03-27T07:26:48.060Z,90.20
2018-03-27T07:27:48.090Z,92.20
2018-03-27T07:28:48.120Z,88.90
2018-03-27T07:29:48.152Z,87.00
2018-03-27T07:30:48.187Z,90.80
2018-03-27T07:31:48.211Z,90.00
2018-03-27T07:32:48.243Z,92.50
2018-03-27T07:33:48.272Z,90.50
2018-03-27T07:34:48.302Z,87.20
2018-03-27T07:35:48.331Z,90.60
2018-03-27T07:36:48.363Z,95.40
2018-03-27T07:37:48.394Z,87.20
2018-03-27T07:38:48.424Z,81.30
2018-03-27T07:39:48.455Z,83.50
2018-03-27T07:40:48.485Z,87.70
2018-03-27T07:41:48.516Z,86.50
2018-03-27T07:42:48.547Z,85.10
2018-03-27T07:43:48.578Z,87.60
2018-03-27T07:44:48.609Z,91.70
2018-03-27T07:45:48.641Z,84.60
2018-03-27T07:46:48.671Z,94.50
2018-03-27T07:47:48.702Z,83.40
2018-03-27T07:48:48.735Z,83.00
2018-03-27T07:49:48.768Z,85.50
2018-03-27T07:50:48.796Z,75.30
2018-03-27T07:51:48.828Z,77.80
2018-03-27T07:52:48.860Z,77.80
2018-03-27T07:53:48.892Z,82.50
2018-03-27T07:54:48.922Z,77.30
2018-03-27T07:55:48.954Z,84.20
2018-03-27T07:56:48.986Z,82.90
2018-03-27T07:57:49.019Z,78.10
2018-03-27T07:58:49.056Z,85.40
2018-03-27T07:59:49.082Z,79.90
2018-03-27T08:00:49.112Z,77.10
2018-03-27T08:01:49.145Z,82.10
2018-03-27T08:02:49.176Z,80.20
2018-03-27T08:03:49.208Z,77.20
2018-03-27T08:04:49.241Z,74.90
2018-03-27T08:05:49.273Z,78.20
2018-03-27T08:06:49.304Z,84.20
2018-03-27T08:07:49.335Z,82.00
2018-03-27T08:08:49.369Z,86.10
2018-03-27T08:09:49.401Z,79.80
2018-03-27T08:10:49.432Z,77.90
2018-03-27T08:11:49.464Z,80.00
2018-03-27T08:12:49.497Z,79.90
2018-03-27T08:13:49.528Z,75.70
2018-03-27T08:14:49.562Z,79.00
2018-03-27T08:15:49.594Z,73.60
2018-03-27T08:16:49.626Z,79.10
2018-03-27T08:17:49.659Z,74.30
2018-03-27T08:18:49.693Z,79.30
2018-03-27T08:19:49.726Z,75.30
2018-03-27T08:20:49.758Z,72.60
2018-03-27T08:21:49.790Z,75.60
2018-03-27T08:22:49.823Z,68.60
2018-03-27T08:23:49.858Z,69.70
2018-03-27T08:24:49.891Z,73.30
2018-03-27T08:25:49.924Z,71.10
2018-03-27T08:26:49.957Z,66.90
2018-03-27T08:27:49.994Z,62.20
2018-03-27T08:28:50.026Z,61.80
2018-03-27T08:29:50.060Z,65.30
2018-03-27T08:30:50.093Z,64.30
2018-03-27T08:31:50.128Z,61.60
2018-03-27T08:32:50.161Z,57.20
2018-03-27T08:33:50.198Z,59.40
2018-03-27T08:34:50.236Z,59.40
2018-03-27T08:35:50.266Z,59.00
2018-03-27T08:36:50.302Z,57.10
2018-03-27T08:37:50.336Z,57.70
2018-03-27T08:38:50.370Z,56.20
2018-03-27T08:39:50.407Z,59.60
2018-03-27T08:40:50.441Z,60.50
2018-03-27T08:41:50.475Z,60.80
2018-03-27T08:42:50.511Z,58.60
2018-03-27T08:43:50.546Z,53.10
2018-03-27T08:44:50.588Z,60.30
2018-03-27T08:45:50.616Z,57.30
2018-03-27T08:46:50.654Z,51.80
2018-03-27T08:47:50.693Z,50.70
2018-03-27T08:48:50.729Z,50.60
2018-03-27T08:49:50.762Z,43.90
2018-03-27T08:50:50.797Z,43.30
2018-03-27T08:51:50.831Z,46.80
2018-03-27T08:52:50.868Z,41.60
2018-03-27T08:53:50.904Z,39.70
2018-03-27T08:54:50.945Z,41.50
2018-03-27T08:55:50.976Z,45.10
2018-03-27T08:56:51.012Z,42.40
2018-03-27T08:57:51.048Z,47.30
2018-03-27T08:58:51.083Z,45.20
2018-03-27T08:59:51.119Z,43.90
2018-03-27T09:00:51.154Z,47.00
2018-03-27T09:01:51.191Z,41.40
2018-03-27T09:02:51.224Z,49.50
2018-03-27T09:03:51.262Z,42.80
2018-03-27T09:04:51.297Z,43.10
2018-03-27T09:05:51.331Z,44.50
2018-03-27T09:06:51.367Z,47.60
2018-03-27T09:07:51.402Z,40.20
2018-03-27T09:08:51.438Z,41.80
2018-03-27T09:09:51.474Z,38.40
2018-03-27T09:10:51.508Z,37.90
2018-03-27T09:11:51.543Z,39.40
2018-03-27T09:12:51.579Z,45.80
2018-03-27T09:13:51.615Z,39.00
2018-03-27T09:14:51.648Z,40.00
2018-03-27T09:15:51.684Z,39.90
2018-03-27T09:16:51.719Z,41.10
2018-03-27T09:17:51.755Z,41.60
2018-03-27T09:18:51.789Z,39.10
2018-03-27T09:19:51.824Z,39.30
2018-03-27T09:20:51.858Z,42.50
2018-03-27T09:21:51.950Z,43.50
2018-03-27T09:22:51.928Z,40.90
2018-03-27T09:23:51.962Z,41.10
2018-03-27T09:24:51.998Z,39.20
2018-03-27T09:25:52.032Z,43.10
2018-03-27T09:26:52.067Z,41.80
2018-03-27T09:27:52.102Z,45.90
2018-03-27T09:28:52.135Z,41.20
2018-03-27T09:29:52.173Z,41.00
2018-03-27T09:30:52.210Z,42.80
2018-03-27T09:31:52.241Z,42.80
2018-03-27T09:32:52.276Z,43.50
2018-03-27T09:33:52.310Z,44.90
2018-03-27T09:34:52.345Z,43.90
2018-03-27T09:35:52.379Z,44.00
2018-03-27T09:36:52.414Z,38.40
2018-03-27T09:37:52.450Z,43.30
2018-03-27T09:38:52.485Z,44.20
2018-03-27T09:39:52.521Z,42.40
2018-03-27T09:40:52.554Z,40.00
2018-03-27T09:41:52.588Z,42.10
2018-03-27T09:42:52.624Z,42.80
2018-03-27T09:43:52.659Z,42.80
2018-03-27T09:44:52.696Z,40.60
2018-03-27T09:45:52.728Z,38.00
2018-03-27T09:46:52.761Z,37.60
2018-03-27T09:47:52.802Z,41.60
2018-03-27T09:48:52.835Z,38.50
2018-03-27T09:49:52.869Z,38.60
2018-03-27T09:50:52.909Z,39.20
2018-03-27T09:51:52.939Z,41.20
2018-03-27T09:52:52.976Z,43.70
2018-03-27T09:53:53.016Z,36.30
2018-03-27T09:54:53.045Z,35.80
2018-03-27T09:55:53.081Z,33.50
2018-03-27T09:56:53.117Z,37.20
2018-03-27T09:57:53.158Z,37.70
2018-03-27T09:58:53.192Z,42.70
2018-03-27T09:59:53.226Z,43.90
2018-03-27T10:00:53.263Z,42.70
2018-03-27T10:01:53.302Z,39.70
2018-03-27T10:02:53.336Z,36.60
2018-03-27T10:03:53.372Z,35.40
2018-03-27T10:04:53.410Z,37.00
2018-03-27T10:05:53.474Z,33.10
2018-03-27T10:06:53.481Z,34.20
2018-03-27T10:07:53.518Z,36.20
2018-03-27T10:08:53.560Z,35.80
2018-03-27T10:09:53.592Z,40.70
2018-03-27T10:10:53.628Z,37.40
2018-03-27T10:11:53.666Z,38.00
2018-03-27T10:12:53.702Z,37.10
2018-03-27T10:13:53.739Z,39.50
2018-03-27T10:14:53.774Z,35.00
2018-03-27T10:15:53.828Z,37.70
2018-03-27T10:16:53.846Z,33.80
2018-03-27T10:17:53.937Z,34.90
2018-03-27T10:18:53.917Z,35.00
2018-03-27T10:19:53.954Z,35.80
2018-03-27T10:20:53.990Z,41.10
2018-03-27T10:21:54.028Z,38.30
2018-03-27T10:22:54.060Z,39.20
2018-03-27T10:23:54.096Z,34.20
2018-03-27T10:24:54.136Z,33.20
2018-03-27T10:25:54.167Z,35.50
2018-03-27T10:26:54.204Z,33.00
2018-03-27T10:27:54.239Z,36.40
2018-03-27T10:28:54.276Z,36.00
2018-03-27T10:29:54.312Z,31.70
2018-03-27T10:30:54.348Z,34.10
2018-03-27T10:31:54.384Z,30.20
2018-03-27T10:32:54.422Z,33.80
2018-03-27T10:33:54.458Z,32.60
2018-03-27T10:34:54.495Z,30.30
2018-03-27T10:35:54.533Z,30.20
2018-03-27T10:36:54.576Z,31.30
2018-03-27T10:37:54.612Z,35.20
2018-03-27T10:38:54.645Z,30.80
2018-03-27T10:39:54.683Z,29.20
2018-03-27T10:40:54.720Z,30.20
2018-03-27T10:41:54.759Z,29.00
2018-03-27T10:42:54.795Z,23.80
2018-03-27T10:43:54.836Z,26.50
2018-03-27T10:44:54.874Z,26.60
2018-03-27T10:45:54.915Z,25.00
2018-03-27T10:46:54.954Z,21.40
2018-03-27T10:47:54.995Z,22.40
2018-03-27T10:48:55.037Z,22.20
2018-03-27T10:49:55.077Z,26.40
2018-03-27T10:50:55.119Z,26.30
2018-03-27T10:51:55.162Z,23.40
2018-03-27T10:52:55.205Z,22.90
2018-03-27T10:53:55.250Z,21.30
2018-03-27T10:54:55.291Z,21.20
2018-03-27T10:55:55.337Z,19.60
2018-03-27T10:56:55.382Z,20.30
2018-03-27T10:57:55.427Z,21.20
2018-03-27T10:58:55.472Z,20.20
2018-03-27T10:59:55.516Z,17.60
2018-03-27T11:00:55.563Z,18.40
2018-03-27T11:01:55.610Z,15.70
2018-03-27T11:02:55.655Z,14.60
2018-03-27T11:03:55.757Z,13.60
2018-03-27T11:04:55.747Z,14.40
2018-03-27T11:05:55.796Z,14.30
2018-03-27T11:06:55.839Z,14.30
2018-03-27T11:07:55.886Z,14.20
2018-03-27T11:08:55.933Z,12.80
2018-03-27T11:09:56.017Z,12.20
2018-03-27T11:10:56.028Z,13.00
2018-03-27T11:11:56.077Z,12.50
2018-03-27T11:12:56.126Z,11.90
2018-03-27T11:13:56.178Z,17.50
2018-03-27T11:14:56.222Z,14.60
2018-03-27T11:15:56.272Z,12.10
2018-03-27T11:16:56.321Z,16.20
2018-03-27T11:17:56.370Z,12.50
2018-03-27T11:18:56.418Z,12.00
2018-03-27T11:19:56.466Z,12.90
2018-03-27T11:20:56.516Z,11.50
2018-03-27T11:21:56.565Z,12.00
2018-03-27T11:22:56.611Z,12.20
2018-03-27T11:23:56.660Z,11.10
2018-03-27T11:24:56.711Z,11.60
2018-03-27T11:25:56.759Z,12.30
2018-03-27T11:26:56.807Z,12.10
2018-03-27T11:27:56.857Z,12.20
2018-03-27T11:28:56.906Z,15.70
2018-03-27T11:29:56.956Z,12.00
2018-03-27T11:30:57.002Z,13.10
2018-03-27T11:31:57.052Z,13.40
2018-03-27T11:32:57.100Z,13.10
2018-03-27T11:33:57.149Z,14.30
2018-03-27T11:34:57.200Z,13.10
2018-03-27T11:35:57.250Z,13.10
2018-03-27T11:36:57.298Z,12.10
2018-03-27T11:37:57.369Z,11.60
2018-03-27T11:38:57.398Z,12.60
2018-03-27T11:39:57.448Z,13.00
2018-03-27T11:40:57.499Z,14.70
2018-03-27T11:41:57.550Z,13.80
2018-03-27T11:42:57.604Z,15.20
2018-03-27T11:43:57.650Z,14.20
2018-03-27T11:44:57.702Z,12.90
2018-03-27T11:45:57.751Z,13.40
2018-03-27T11:46:57.800Z,13.80
2018-03-27T11:47:57.850Z,13.40
2018-03-27T11:48:57.900Z,13.20
2018-03-27T11:49:57.950Z,14.80
2018-03-27T11:50:57.999Z,16.20
2018-03-27T11:51:58.050Z,16.20
2018-03-27T11:52:58.098Z,15.10
2018-03-27T11:53:58.147Z,14.90
2018-03-27T11:54:58.195Z,16.10
2018-03-27T11:55:58.245Z,14.00
2018-03-27T11:56:58.291Z,15.70
2018-03-27T11:57:58.337Z,15.80
2018-03-27T11:58:58.384Z,15.80
2018-03-27T11:59:58.430Z,17.00
2018-03-27T12:00:58.476Z,16.90
2018-03-27T12:01:58.522Z,19.00
2018-03-27T12:02:58.566Z,16.30
2018-03-27T12:03:58.609Z,17.70
2018-03-27T12:04:58.653Z,17.70
2018-03-27T12:05:58.755Z,17.90
2018-03-27T12:06:58.741Z,17.10
2018-03-27T12:07:58.784Z,19.10
2018-03-27T12:08:58.827Z,20.50
2018-03-27T12:09:58.871Z,18.10
2018-03-27T12:10:58.915Z,20.10
2018-03-27T12:11:58.957Z,15.70
2018-03-27T12:12:59.002Z,16.10
2018-03-27T12:13:59.045Z,18.40
2018-03-27T12:14:59.089Z,15.10
2018-03-27T12:15:59.133Z,13.90
2018-03-27T12:16:59.179Z,14.40
2018-03-27T12:17:59.229Z,13.00
2018-03-27T12:18:59.303Z,14.40
2018-03-27T12:19:59.318Z,14.00
2018-03-27T12:20:59.364Z,14.30
2018-03-27T12:21:59.411Z,14.40
2018-03-27T12:22:59.457Z,15.60
2018-03-27T12:23:59.504Z,17.20
2018-03-27T12:24:59.551Z,14.20
2018-03-27T12:25:59.601Z,15.50
2018-03-27T12:26:59.643Z,13.90
2018-03-27T12:27:59.692Z,13.50
2018-03-27T12:28:59.741Z,14.10
2018-03-27T12:29:59.786Z,12.90
2018-03-27T12:30:59.833Z,12.60
2018-03-27T12:31:59.881Z,12.00
2018-03-27T12:32:59.929Z,12.70
2018-03-27T12:33:59.977Z,13.10
2018-03-27T12:35:00.024Z,14.60
2018-03-27T12:36:00.072Z,11.50
2018-03-27T12:37:00.156Z,11.70
2018-03-27T12:38:00.169Z,12.80
2018-03-27T12:39:00.217Z,11.20
2018-03-27T12:40:00.266Z,12.00